Wallkill, NY (12589)

12:34 PM EDT on September 02, 2015 (GMT -0400)
APRSWXNET | | Change Station
CLOSE
Current Station
Personal Weather Station
Location: Plattekill, NY
Elevation: 600 ft
Nearby Weather Stations

Elev 600 ft 41.61 °N, 74.09 °W | Updated 15 minutes ago

Clear
Clear
86 °F
Feels Like 87 °F
N
1
Wind Variable Wind from West
Gusts 4.0 mph

Today
High -- | Low -- °F
--% Chance of Precip.
Yesterday
High -- | Low -- °F
Precip. -- in
6:23 AM 7:28 PM
Waning Gibbous, 79% visible
Pressure 30.02 in
Visibility 7.0 miles
Clouds Clear
Heat Index 87 °F
Dew Point 64 °F
Humidity 48%
Rainfall in
Snow Depth Not available.
UV 8 out of 12
Pollen 9.00 out of 12
Air Quality Not available.
Flu Activity Not available.
METAR KSWF 021545Z 24006KT 7SM SKC 28/20 A3002 RMK HAZY
Pressure 30.02 in
Visibility 7.0 miles
Clouds Clear
Heat Index 87 °F
Dew Point 64 °F
Humidity 48%
Rainfall in
Snow Depth Not available.
UV 8 out of 12
Pollen 9.00 out of 12
Air Quality Not available.
Flu Activity Not available.
METAR KSWF 021545Z 24006KT 7SM SKC 28/20 A3002 RMK HAZY

10-Day Weather Forecast

×

Almanac

Astronomy

Sep. 02, 2015 Rise Set
Actual Time
Civil Twilight
Nautical Twilight
Astronomical Twilight
Moon
Length of Visible Light
Length of Day
Tomorrow will be .
, % of the Moon is Illuminated

Today's Extremes

State Highs State Lows

Community

WunderPhotos

Upload Photos

1,851,783 photos uploaded!

WunderBlogs® & News

Nearby

Air Quality

  Air Quality AQ Index Pollutant
Not available.

Snow Depth

Station Depth Elevation

Earthquake Activity

City Distance Mag. Time & Date
Minimum magnitude displayed is 2.5.

Coastal Water Temperatures

Place Temperature

Stations

Nearby Weather Stations

Station Location Temp. Windchill Dew Point Humidity Wind Precip. Elev Updated Type